createdAt,value
2022-12-12T00:00:43.632Z,0.30
2022-12-12T00:03:10.926Z,0.30
2022-12-12T00:05:38.799Z,0.30
2022-12-12T00:08:06.122Z,0.30
2022-12-12T00:10:34.827Z,0.30
2022-12-12T00:13:02.798Z,0.30
2022-12-12T00:15:29.990Z,0.30
2022-12-12T00:17:57.146Z,0.30
2022-12-12T00:20:24.406Z,0.30
2022-12-12T00:22:51.595Z,0.30
2022-12-12T00:25:18.787Z,0.30
2022-12-12T00:27:45.927Z,0.30
2022-12-12T00:30:13.619Z,0.30
2022-12-12T00:32:40.764Z,0.30
2022-12-12T00:35:08.421Z,0.30
2022-12-12T00:37:36.734Z,0.30
2022-12-12T00:40:04.652Z,0.30
2022-12-12T00:42:31.826Z,0.30
2022-12-12T00:44:59.087Z,0.30
2022-12-12T00:47:26.180Z,0.30
2022-12-12T00:49:53.222Z,0.30
2022-12-12T00:52:20.527Z,0.30
2022-12-12T00:54:47.495Z,0.30
2022-12-12T00:57:14.597Z,0.30
2022-12-12T00:59:41.834Z,0.30
2022-12-12T01:02:09.080Z,0.30
2022-12-12T01:04:36.443Z,0.30
2022-12-12T01:07:03.635Z,0.30
2022-12-12T01:09:30.738Z,0.30
2022-12-12T01:11:57.843Z,0.30
2022-12-12T01:14:24.988Z,0.30
2022-12-12T01:16:52.175Z,0.30
2022-12-12T01:19:19.157Z,0.30
2022-12-12T01:21:46.099Z,0.20
2022-12-12T01:24:13.168Z,0.30
2022-12-12T01:26:41.018Z,0.30
2022-12-12T01:29:08.244Z,0.30
2022-12-12T01:31:35.639Z,0.30
2022-12-12T01:34:02.760Z,0.30
2022-12-12T01:36:30.980Z,0.30
2022-12-12T01:39:00.588Z,0.30
2022-12-12T01:41:28.059Z,0.30
2022-12-12T01:43:55.740Z,0.30
2022-12-12T01:46:22.715Z,0.30
2022-12-12T01:48:58.813Z,0.30
2022-12-12T01:51:27.728Z,0.30
2022-12-12T01:54:11.113Z,0.30
2022-12-12T01:56:42.124Z,0.30
2022-12-12T01:59:13.284Z,0.30
2022-12-12T02:01:42.243Z,0.30
2022-12-12T02:04:10.695Z,0.30
2022-12-12T02:06:39.511Z,0.30
2022-12-12T02:09:13.023Z,0.30
2022-12-12T02:11:48.956Z,0.30
2022-12-12T02:14:19.746Z,0.20
2022-12-12T02:16:55.128Z,0.30
2022-12-12T02:19:50.460Z,0.20
2022-12-12T02:22:42.225Z,0.20
2022-12-12T02:25:54.245Z,0.20
2022-12-12T02:28:57.036Z,0.20
2022-12-12T02:31:41.004Z,0.20
2022-12-12T02:34:31.839Z,0.20
2022-12-12T02:37:16.024Z,0.20
2022-12-12T02:40:03.970Z,0.20
2022-12-12T02:43:00.159Z,0.20
2022-12-12T02:45:54.955Z,0.20
2022-12-12T02:48:37.566Z,0.30
2022-12-12T02:51:08.916Z,0.20
2022-12-12T02:53:36.097Z,0.20
2022-12-12T02:56:29.246Z,0.20
2022-12-12T02:58:56.590Z,0.30
2022-12-12T03:01:42.542Z,0.20
2022-12-12T03:05:17.627Z,0.20
2022-12-12T03:08:06.186Z,0.30
2022-12-12T03:10:57.982Z,0.20
2022-12-12T03:13:43.233Z,0.20
2022-12-12T03:16:28.122Z,0.20
2022-12-12T03:19:18.960Z,0.20
2022-12-12T03:22:25.807Z,0.20
2022-12-12T03:25:06.416Z,0.20
2022-12-12T03:28:01.435Z,0.20
2022-12-12T03:30:35.241Z,0.20
2022-12-12T03:33:38.434Z,0.20
2022-12-12T03:36:44.962Z,0.20
2022-12-12T03:39:31.761Z,0.20
2022-12-12T03:42:26.350Z,0.20
2022-12-12T03:45:02.735Z,0.20
2022-12-12T03:47:46.576Z,0.20
2022-12-12T03:50:26.608Z,0.20
2022-12-12T03:53:07.253Z,0.20
2022-12-12T03:56:06.071Z,0.20
2022-12-12T03:58:50.985Z,0.20
2022-12-12T04:01:23.635Z,0.20
2022-12-12T04:04:05.251Z,0.20
2022-12-12T04:06:38.941Z,0.20
2022-12-12T04:09:34.945Z,0.20
2022-12-12T04:12:42.904Z,0.20
2022-12-12T04:15:47.672Z,0.20
2022-12-12T04:18:29.052Z,0.20
2022-12-12T04:21:32.417Z,0.20
2022-12-12T04:24:07.910Z,0.20
2022-12-12T04:26:55.186Z,0.20
2022-12-12T04:29:35.415Z,0.20
2022-12-12T04:32:15.663Z,0.20
2022-12-12T04:34:57.939Z,0.20
2022-12-12T04:37:30.983Z,0.20
2022-12-12T04:40:06.427Z,0.20
2022-12-12T04:42:53.207Z,0.20
2022-12-12T04:45:25.316Z,0.20
2022-12-12T04:47:53.967Z,0.20
2022-12-12T04:50:27.335Z,0.20
2022-12-12T04:52:57.189Z,0.20
2022-12-12T04:55:31.478Z,0.20
2022-12-12T04:57:58.720Z,0.20
2022-12-12T05:00:33.743Z,0.20
2022-12-12T05:03:09.566Z,0.20
2022-12-12T05:05:48.595Z,0.20
2022-12-12T05:08:43.167Z,0.20
2022-12-12T05:11:11.508Z,0.20
2022-12-12T05:13:43.229Z,0.20
2022-12-12T05:16:28.210Z,0.20
2022-12-12T05:18:55.343Z,0.20
2022-12-12T05:21:22.601Z,0.20
2022-12-12T05:23:49.805Z,0.30
2022-12-12T05:26:30.216Z,0.20
2022-12-12T05:29:02.271Z,0.20
2022-12-12T05:31:32.646Z,0.20
2022-12-12T05:33:59.754Z,0.20
2022-12-12T05:36:26.818Z,0.20
2022-12-12T05:38:53.913Z,0.20
2022-12-12T05:41:21.203Z,0.20
2022-12-12T05:43:48.332Z,0.10
2022-12-12T05:46:15.567Z,0.10
2022-12-12T05:48:43.217Z,0.10
2022-12-12T05:51:10.669Z,0.10
2022-12-12T05:53:42.832Z,0.10
2022-12-12T05:56:12.673Z,0.10
2022-12-12T05:58:40.619Z,0.10
2022-12-12T06:01:08.699Z,0.20
2022-12-12T06:03:36.204Z,0.20
2022-12-12T06:06:03.875Z,0.20
2022-12-12T06:08:32.239Z,0.10
2022-12-12T06:10:59.511Z,0.10
2022-12-12T06:13:26.845Z,0.10
2022-12-12T06:15:53.834Z,0.10
2022-12-12T06:18:21.107Z,0.10
2022-12-12T06:20:48.220Z,0.10
2022-12-12T06:23:15.510Z,0.10
2022-12-12T06:25:42.519Z,0.10
2022-12-12T06:28:10.676Z,0.10
2022-12-12T06:30:37.888Z,0.10
2022-12-12T06:33:05.005Z,0.20
2022-12-12T06:35:32.413Z,0.20
2022-12-12T06:37:59.509Z,0.10
2022-12-12T06:40:26.639Z,0.10
2022-12-12T06:42:53.739Z,0.10
2022-12-12T06:45:21.501Z,0.10
2022-12-12T06:47:50.773Z,0.10
2022-12-12T06:50:23.412Z,0.10
2022-12-12T06:52:51.046Z,0.10
2022-12-12T06:55:18.322Z,0.20
2022-12-12T06:57:45.514Z,0.10
2022-12-12T07:00:13.349Z,0.10
2022-12-12T07:02:40.570Z,0.10
2022-12-12T07:05:08.022Z,0.10
2022-12-12T07:07:35.060Z,0.10
2022-12-12T07:10:02.063Z,0.10
2022-12-12T07:12:29.358Z,0.10
2022-12-12T07:14:56.379Z,0.10
2022-12-12T07:17:23.356Z,0.10
2022-12-12T07:19:50.491Z,0.10
2022-12-12T07:22:17.520Z,0.10
2022-12-12T07:24:44.597Z,0.10
2022-12-12T07:27:14.546Z,0.10
2022-12-12T07:29:44.309Z,0.10
2022-12-12T07:32:11.450Z,0.10
2022-12-12T07:34:40.611Z,0.10
2022-12-12T07:37:07.799Z,0.10
2022-12-12T07:39:35.102Z,0.10
2022-12-12T07:42:02.225Z,0.10
2022-12-12T07:44:29.414Z,0.10
2022-12-12T07:46:59.464Z,0.10
2022-12-12T07:49:28.648Z,0.10
2022-12-12T07:51:55.965Z,0.10
2022-12-12T07:54:23.298Z,0.20
2022-12-12T07:56:50.465Z,0.10
2022-12-12T07:59:17.586Z,0.10
2022-12-12T08:01:44.806Z,0.10
2022-12-12T08:04:12.004Z,0.10
2022-12-12T08:06:39.091Z,0.10
2022-12-12T08:09:06.159Z,0.10
2022-12-12T08:11:33.287Z,0.10
2022-12-12T08:14:00.403Z,0.10
2022-12-12T08:16:29.162Z,0.10
2022-12-12T08:18:58.635Z,0.10
2022-12-12T08:21:28.316Z,0.10
2022-12-12T08:24:00.578Z,0.20
2022-12-12T08:26:29.591Z,0.10
2022-12-12T08:28:58.456Z,0.20
2022-12-12T08:31:26.244Z,0.20
2022-12-12T08:33:53.722Z,0.20
2022-12-12T08:36:30.017Z,0.30
2022-12-12T08:39:01.672Z,0.30
2022-12-12T08:41:28.776Z,0.30
2022-12-12T08:43:55.984Z,0.30
2022-12-12T08:46:23.297Z,0.40
2022-12-12T08:48:50.703Z,0.40
2022-12-12T08:51:18.928Z,0.50
2022-12-12T08:53:51.427Z,0.50
2022-12-12T08:56:20.634Z,0.50
2022-12-12T08:58:48.387Z,0.50
2022-12-12T09:01:22.461Z,0.60
2022-12-12T09:03:51.449Z,0.60
2022-12-12T09:06:19.352Z,0.60
2022-12-12T09:08:47.217Z,0.70
2022-12-12T09:11:16.519Z,0.70
2022-12-12T09:13:44.162Z,0.70
2022-12-12T09:16:12.456Z,0.80
2022-12-12T09:18:47.793Z,0.80
2022-12-12T09:21:16.702Z,0.80
2022-12-12T09:23:43.899Z,0.90
2022-12-12T09:26:11.859Z,0.90
2022-12-12T09:28:39.368Z,0.90
2022-12-12T09:31:08.920Z,1.00
2022-12-12T09:33:36.595Z,1.00
2022-12-12T09:36:07.241Z,1.00
2022-12-12T09:38:35.537Z,1.10
2022-12-12T09:41:12.432Z,1.10
2022-12-12T09:43:57.472Z,1.20
2022-12-12T09:46:38.068Z,1.20
2022-12-12T09:49:48.807Z,1.30
2022-12-12T09:52:37.705Z,1.20
2022-12-12T09:55:37.991Z,1.30
2022-12-12T09:58:20.642Z,1.30
2022-12-12T10:01:33.489Z,1.30
2022-12-12T10:04:24.901Z,1.20
2022-12-12T10:07:35.176Z,1.20
2022-12-12T10:10:52.753Z,1.20
2022-12-12T10:13:25.995Z,1.20
2022-12-12T10:16:10.846Z,1.30
2022-12-12T10:18:47.609Z,1.30
2022-12-12T10:21:30.208Z,1.30
2022-12-12T10:24:03.136Z,1.30
2022-12-12T10:26:31.294Z,1.40
2022-12-12T10:29:19.547Z,1.40
2022-12-12T10:32:02.051Z,1.40
2022-12-12T10:35:30.848Z,1.40
2022-12-12T10:38:21.636Z,1.30
2022-12-12T10:41:19.122Z,1.40
2022-12-12T10:44:54.687Z,1.40
2022-12-12T10:47:21.963Z,1.50
2022-12-12T10:49:52.694Z,1.50
2022-12-12T10:52:22.747Z,1.50
2022-12-12T10:54:59.456Z,1.50
2022-12-12T10:57:30.101Z,1.50
2022-12-12T10:59:58.811Z,1.50
2022-12-12T11:02:28.783Z,1.60
2022-12-12T11:05:25.465Z,1.60
2022-12-12T11:08:23.028Z,1.70
2022-12-12T11:11:07.891Z,1.60
2022-12-12T11:13:51.178Z,1.60
2022-12-12T11:16:32.993Z,1.70
2022-12-12T11:19:27.209Z,1.70
2022-12-12T11:21:55.559Z,1.70
2022-12-12T11:24:29.636Z,1.70
2022-12-12T11:27:03.902Z,1.70
2022-12-12T11:29:39.846Z,1.70
2022-12-12T11:32:31.576Z,1.60
2022-12-12T11:35:02.187Z,1.60
2022-12-12T11:37:39.298Z,1.60
2022-12-12T11:40:19.765Z,1.60
2022-12-12T11:42:46.957Z,1.60
2022-12-12T11:45:14.223Z,1.70
2022-12-12T11:47:45.127Z,1.70
2022-12-12T11:50:25.438Z,1.70
2022-12-12T11:52:56.797Z,1.60
2022-12-12T11:56:10.086Z,1.70
2022-12-12T11:58:55.399Z,1.70
2022-12-12T12:01:46.791Z,1.80
2022-12-12T12:04:34.820Z,1.80
2022-12-12T12:07:58.217Z,1.80
2022-12-12T12:11:14.791Z,1.80
2022-12-12T12:14:28.163Z,1.90
2022-12-12T12:17:01.560Z,1.80
2022-12-12T12:19:52.813Z,1.90
2022-12-12T12:22:59.622Z,1.90
2022-12-12T12:25:47.845Z,1.90
2022-12-12T12:28:36.391Z,1.90
2022-12-12T12:31:22.131Z,1.90
2022-12-12T12:33:59.409Z,1.90
2022-12-12T12:37:28.063Z,1.80
2022-12-12T12:40:11.016Z,1.80
2022-12-12T12:42:54.260Z,1.70
2022-12-12T12:45:42.604Z,1.70
2022-12-12T12:48:20.363Z,1.70
2022-12-12T12:51:02.910Z,1.80
2022-12-12T12:53:35.929Z,1.80
2022-12-12T12:56:43.760Z,1.70
2022-12-12T12:59:21.352Z,1.80
2022-12-12T13:01:52.445Z,1.70
2022-12-12T13:04:42.563Z,1.70
2022-12-12T13:07:42.357Z,1.70
2022-12-12T13:10:22.895Z,1.70
2022-12-12T13:12:59.048Z,1.70
2022-12-12T13:15:38.895Z,1.80
2022-12-12T13:18:13.597Z,1.70
2022-12-12T13:21:05.096Z,1.80
2022-12-12T13:24:18.356Z,1.80
2022-12-12T13:27:14.791Z,1.90
2022-12-12T13:30:05.244Z,2.00
2022-12-12T13:32:55.708Z,1.90
2022-12-12T13:35:30.596Z,2.00
2022-12-12T13:37:58.066Z,1.90
2022-12-12T13:40:41.977Z,1.90
2022-12-12T13:43:43.138Z,1.90
2022-12-12T13:46:23.524Z,1.80
2022-12-12T13:49:22.136Z,1.80
2022-12-12T13:51:49.288Z,1.80
2022-12-12T13:54:19.387Z,1.80
2022-12-12T13:56:53.787Z,1.80
2022-12-12T13:59:24.115Z,1.80
2022-12-12T14:02:32.931Z,1.70
2022-12-12T14:05:43.684Z,1.70
2022-12-12T14:08:10.629Z,1.60
2022-12-12T14:10:52.663Z,1.60
2022-12-12T14:13:22.611Z,1.50
2022-12-12T14:16:02.260Z,1.50
2022-12-12T14:18:37.049Z,1.50
2022-12-12T14:21:10.341Z,1.50
2022-12-12T14:23:42.519Z,1.50
2022-12-12T14:26:33.003Z,1.40
2022-12-12T14:29:18.349Z,1.30
2022-12-12T14:32:30.223Z,1.20
2022-12-12T14:35:29.102Z,1.20
2022-12-12T14:38:47.706Z,1.20
2022-12-12T14:41:20.646Z,1.20
2022-12-12T14:44:38.057Z,1.10
2022-12-12T14:46:44.243Z,1.00
2022-12-12T14:49:17.996Z,0.90
2022-12-12T14:51:50.221Z,0.80
2022-12-12T14:54:21.520Z,0.70
2022-12-12T14:56:56.409Z,0.60
2022-12-12T14:59:38.299Z,0.60
2022-12-12T15:02:32.513Z,0.50
2022-12-12T15:05:05.533Z,0.40
2022-12-12T15:07:38.644Z,0.30
2022-12-12T15:10:27.252Z,0.20
2022-12-12T15:12:54.486Z,0.10
2022-12-12T15:15:28.577Z,0.00
2022-12-12T15:18:00.627Z,0.00
2022-12-12T15:20:35.129Z,-0.10
2022-12-12T15:23:08.408Z,-0.20
2022-12-12T15:25:53.901Z,-0.30
2022-12-12T15:28:22.504Z,-0.30
2022-12-12T15:30:53.515Z,-0.40
2022-12-12T15:33:24.928Z,-0.50
2022-12-12T15:36:01.131Z,-0.50
2022-12-12T15:38:29.968Z,-0.60
2022-12-12T15:41:09.519Z,-0.70
2022-12-12T15:43:41.395Z,-0.70
2022-12-12T15:46:15.282Z,-0.80
2022-12-12T15:48:49.588Z,-0.80
2022-12-12T15:51:24.435Z,-0.90
2022-12-12T15:53:55.252Z,-0.90
2022-12-12T15:56:28.776Z,-1.00
2022-12-12T15:59:17.152Z,-1.00
2022-12-12T16:01:44.446Z,-1.10
2022-12-12T16:04:11.552Z,-1.10
2022-12-12T16:06:44.616Z,-1.10
2022-12-12T16:09:11.553Z,-1.20
2022-12-12T16:11:47.190Z,-1.30
2022-12-12T16:14:41.825Z,-1.30
2022-12-12T16:17:23.323Z,-1.40
2022-12-12T16:20:04.129Z,-1.40
2022-12-12T16:22:45.681Z,-1.40
2022-12-12T16:25:33.973Z,-1.40
2022-12-12T16:28:15.793Z,-1.40
2022-12-12T16:30:50.647Z,-1.50
2022-12-12T16:33:32.690Z,-1.60
2022-12-12T16:36:06.692Z,-1.60
2022-12-12T16:38:35.212Z,-1.60
2022-12-12T16:41:08.192Z,-1.70
2022-12-12T16:43:35.433Z,-1.70
2022-12-12T16:46:02.692Z,-1.70
2022-12-12T16:48:37.805Z,-1.70
2022-12-12T16:51:07.585Z,-1.80
2022-12-12T16:53:36.884Z,-1.80
2022-12-12T16:56:04.765Z,-1.80
2022-12-12T16:58:34.952Z,-1.80
2022-12-12T17:01:02.832Z,-1.90
2022-12-12T17:03:32.294Z,-1.90
2022-12-12T17:06:00.245Z,-2.00
2022-12-12T17:08:28.218Z,-2.00
2022-12-12T17:11:10.417Z,-2.00
2022-12-12T17:13:49.367Z,-2.00
2022-12-12T17:16:16.921Z,-2.00
2022-12-12T17:18:44.355Z,-2.00
2022-12-12T17:21:11.575Z,-2.00
2022-12-12T17:23:40.203Z,-2.00
2022-12-12T17:26:07.592Z,-2.00
2022-12-12T17:28:35.097Z,-2.00
2022-12-12T17:31:07.835Z,-2.10
2022-12-12T17:33:35.015Z,-2.00
2022-12-12T17:36:07.153Z,-2.00
2022-12-12T17:38:34.739Z,-2.00
2022-12-12T17:41:09.035Z,-2.10
2022-12-12T17:43:37.528Z,-2.20
2022-12-12T17:46:14.963Z,-2.20
2022-12-12T17:48:48.914Z,-2.20
2022-12-12T17:51:20.152Z,-2.30
2022-12-12T17:53:47.456Z,-2.30
2022-12-12T17:56:18.918Z,-2.40
2022-12-12T17:58:48.256Z,-2.40
2022-12-12T18:01:23.984Z,-2.50
2022-12-12T18:03:51.655Z,-2.50
2022-12-12T18:06:21.373Z,-2.50
2022-12-12T18:08:49.637Z,-2.60
2022-12-12T18:11:24.829Z,-2.60
2022-12-12T18:13:53.933Z,-2.60
2022-12-12T18:16:24.449Z,-2.60
2022-12-12T18:18:52.743Z,-2.60
2022-12-12T18:21:51.685Z,-2.70
2022-12-12T18:24:11.250Z,-2.70
2022-12-12T18:26:38.807Z,-2.70
2022-12-12T18:29:08.330Z,-2.70
2022-12-12T18:31:36.123Z,-2.70
2022-12-12T18:34:03.411Z,-2.70
2022-12-12T18:36:31.760Z,-2.70
2022-12-12T18:39:02.731Z,-2.80
2022-12-12T18:41:31.667Z,-2.80
2022-12-12T18:44:07.072Z,-2.80
2022-12-12T18:46:42.199Z,-2.80
2022-12-12T18:49:13.644Z,-2.90
2022-12-12T18:51:42.046Z,-2.90
2022-12-12T18:54:14.703Z,-2.90
2022-12-12T18:56:47.283Z,-2.90
2022-12-12T18:59:15.831Z,-2.90
2022-12-12T19:01:43.953Z,-2.90
2022-12-12T19:04:15.118Z,-2.90
2022-12-12T19:06:44.983Z,-2.90
2022-12-12T19:09:16.681Z,-3.00
2022-12-12T19:11:44.446Z,-3.00
2022-12-12T19:14:14.879Z,-3.10
2022-12-12T19:16:44.140Z,-3.10
2022-12-12T19:19:12.233Z,-3.10
2022-12-12T19:21:42.127Z,-3.10
2022-12-12T19:24:12.212Z,-3.20
2022-12-12T19:26:43.689Z,-3.20
2022-12-12T19:29:17.707Z,-3.30
2022-12-12T19:31:45.799Z,-3.30
2022-12-12T19:34:16.351Z,-3.30
2022-12-12T19:36:43.746Z,-3.30
2022-12-12T19:39:12.111Z,-3.30
2022-12-12T19:41:39.936Z,-3.30
2022-12-12T19:44:12.402Z,-3.30
2022-12-12T19:46:46.080Z,-3.30
2022-12-12T19:49:16.063Z,-3.30
2022-12-12T19:51:45.716Z,-3.40
2022-12-12T19:54:17.633Z,-3.40
2022-12-12T19:56:45.571Z,-3.40
2022-12-12T19:59:16.714Z,-3.40
2022-12-12T20:01:44.877Z,-3.40
2022-12-12T20:04:22.596Z,-3.40
2022-12-12T20:06:51.298Z,-3.30
2022-12-12T20:09:22.393Z,-3.30
2022-12-12T20:11:50.164Z,-3.30
2022-12-12T20:14:32.452Z,-3.40
2022-12-12T20:17:02.779Z,-3.40
2022-12-12T20:19:30.838Z,-3.50
2022-12-12T20:22:01.265Z,-3.50
2022-12-12T20:24:31.687Z,-3.60
2022-12-12T20:27:00.124Z,-3.60
2022-12-12T20:29:27.916Z,-3.60
2022-12-12T20:31:55.121Z,-3.60
2022-12-12T20:34:24.296Z,-3.70
2022-12-12T20:36:52.184Z,-3.70
2022-12-12T20:39:22.028Z,-3.70
2022-12-12T20:41:50.621Z,-3.70
2022-12-12T20:44:17.849Z,-3.80
2022-12-12T20:46:46.854Z,-3.80
2022-12-12T20:49:17.692Z,-3.90
2022-12-12T20:52:00.945Z,-3.80
2022-12-12T20:54:29.629Z,-3.80
2022-12-12T20:56:58.753Z,-3.80
2022-12-12T20:59:26.827Z,-3.80
2022-12-12T21:01:54.272Z,-3.90
2022-12-12T21:04:21.977Z,-3.90
2022-12-12T21:06:50.058Z,-3.90
2022-12-12T21:09:24.288Z,-4.00
2022-12-12T21:11:55.835Z,-4.00
2022-12-12T21:14:25.773Z,-4.10
2022-12-12T21:16:54.254Z,-4.10
2022-12-12T21:19:23.352Z,-4.10
2022-12-12T21:21:51.647Z,-4.10
2022-12-12T21:24:20.256Z,-4.10
2022-12-12T21:26:48.471Z,-4.10
2022-12-12T21:29:16.088Z,-4.10
2022-12-12T21:31:50.281Z,-4.10
2022-12-12T21:34:23.512Z,-4.10
2022-12-12T21:36:55.271Z,-4.10
2022-12-12T21:39:28.564Z,-4.10
2022-12-12T21:41:56.314Z,-4.10
2022-12-12T21:44:24.033Z,-4.10
2022-12-12T21:46:52.105Z,-4.10
2022-12-12T21:49:19.675Z,-4.10
2022-12-12T21:51:47.930Z,-4.20
2022-12-12T21:54:15.929Z,-4.30
2022-12-12T21:56:44.351Z,-4.30
2022-12-12T21:59:13.967Z,-4.40
2022-12-12T22:01:42.908Z,-4.40
2022-12-12T22:04:11.882Z,-4.40
2022-12-12T22:06:40.065Z,-4.50
2022-12-12T22:09:10.397Z,-4.50
2022-12-12T22:11:40.799Z,-4.50
2022-12-12T22:14:17.447Z,-4.50
2022-12-12T22:16:44.812Z,-4.40
2022-12-12T22:19:14.456Z,-4.50
2022-12-12T22:21:44.992Z,-4.50
2022-12-12T22:24:12.176Z,-4.50
2022-12-12T22:26:42.963Z,-4.60
2022-12-12T22:29:17.115Z,-4.60
2022-12-12T22:31:45.063Z,-4.70
2022-12-12T22:34:19.447Z,-4.70
2022-12-12T22:36:47.590Z,-4.60
2022-12-12T22:39:19.193Z,-4.60
2022-12-12T22:41:46.627Z,-4.70
2022-12-12T22:44:16.865Z,-4.80
2022-12-12T22:46:46.865Z,-4.80
2022-12-12T22:49:20.478Z,-4.80
2022-12-12T22:51:49.212Z,-4.70
2022-12-12T22:54:17.041Z,-4.70
2022-12-12T22:56:44.909Z,-4.80
2022-12-12T22:59:13.694Z,-4.80
2022-12-12T23:01:42.047Z,-4.80
2022-12-12T23:04:13.058Z,-4.90
2022-12-12T23:06:41.162Z,-4.90
2022-12-12T23:09:21.442Z,-4.80
2022-12-12T23:11:49.596Z,-4.90
2022-12-12T23:14:21.730Z,-4.90
2022-12-12T23:16:50.552Z,-5.00
2022-12-12T23:19:21.942Z,-5.00
2022-12-12T23:21:49.750Z,-5.00
2022-12-12T23:24:17.089Z,-5.10
2022-12-12T23:26:44.881Z,-5.10
2022-12-12T23:29:16.813Z,-5.10
2022-12-12T23:31:44.441Z,-5.10
2022-12-12T23:34:20.922Z,-5.20
2022-12-12T23:36:49.075Z,-5.20
2022-12-12T23:39:17.137Z,-5.20
2022-12-12T23:41:44.658Z,-5.20
2022-12-12T23:44:17.975Z,-5.20
2022-12-12T23:46:45.709Z,-5.20
2022-12-12T23:49:12.666Z,-5.20
2022-12-12T23:51:45.647Z,-5.20
2022-12-12T23:54:17.815Z,-5.30
2022-12-12T23:56:46.034Z,-5.30
2022-12-12T23:59:17.384Z,-5.30
